sensor_id;sensor_type;location;lat;lon;timestamp;P1;durP1;ratioP1;P2;durP2;ratioP2
9080;SDS011;13509;50.760;6.080;2023-05-13T00:01:42;9.50;;;6.87;;
9080;SDS011;13509;50.760;6.080;2023-05-13T00:04:10;8.77;;;6.77;;
9080;SDS011;13509;50.760;6.080;2023-05-13T00:06:38;9.90;;;6.20;;
9080;SDS011;13509;50.760;6.080;2023-05-13T00:09:08;8.47;;;6.50;;
9080;SDS011;13509;50.760;6.080;2023-05-13T00:11:36;9.77;;;6.33;;
9080;SDS011;13509;50.760;6.080;2023-05-13T00:14:05;12.33;;;6.90;;
9080;SDS011;13509;50.760;6.080;2023-05-13T00:16:34;8.67;;;6.73;;
9080;SDS011;13509;50.760;6.080;2023-05-13T00:19:03;7.77;;;6.50;;
9080;SDS011;13509;50.760;6.080;2023-05-13T00:21:31;8.33;;;6.23;;
9080;SDS011;13509;50.760;6.080;2023-05-13T00:23:59;9.40;;;6.60;;
9080;SDS011;13509;50.760;6.080;2023-05-13T00:26:29;10.20;;;6.10;;
9080;SDS011;13509;50.760;6.080;2023-05-13T00:28:57;7.47;;;5.80;;
9080;SDS011;13509;50.760;6.080;2023-05-13T00:31:25;12.40;;;6.97;;
9080;SDS011;13509;50.760;6.080;2023-05-13T00:33:54;8.77;;;6.87;;
9080;SDS011;13509;50.760;6.080;2023-05-13T00:36:22;14.87;;;6.30;;
9080;SDS011;13509;50.760;6.080;2023-05-13T00:38:52;6.93;;;6.07;;
9080;SDS011;13509;50.760;6.080;2023-05-13T00:41:20;7.80;;;6.83;;
9080;SDS011;13509;50.760;6.080;2023-05-13T00:43:50;6.17;;;5.50;;
9080;SDS011;13509;50.760;6.080;2023-05-13T00:46:21;9.13;;;6.23;;
9080;SDS011;13509;50.760;6.080;2023-05-13T00:48:49;8.57;;;6.10;;
9080;SDS011;13509;50.760;6.080;2023-05-13T00:51:18;7.13;;;5.90;;
9080;SDS011;13509;50.760;6.080;2023-05-13T00:53:46;8.07;;;6.50;;
9080;SDS011;13509;50.760;6.080;2023-05-13T00:56:17;6.90;;;6.13;;
9080;SDS011;13509;50.760;6.080;2023-05-13T00:58:45;7.63;;;6.63;;
9080;SDS011;13509;50.760;6.080;2023-05-13T01:01:16;11.57;;;6.47;;
9080;SDS011;13509;50.760;6.080;2023-05-13T01:03:49;7.27;;;6.27;;
9080;SDS011;13509;50.760;6.080;2023-05-13T01:06:20;8.10;;;6.30;;
9080;SDS011;13509;50.760;6.080;2023-05-13T01:08:53;7.67;;;6.43;;
9080;SDS011;13509;50.760;6.080;2023-05-13T01:11:25;9.43;;;6.37;;
9080;SDS011;13509;50.760;6.080;2023-05-13T01:13:56;8.63;;;6.10;;
9080;SDS011;13509;50.760;6.080;2023-05-13T01:16:29;7.03;;;6.27;;
9080;SDS011;13509;50.760;6.080;2023-05-13T01:18:58;9.00;;;6.80;;
9080;SDS011;13509;50.760;6.080;2023-05-13T01:21:30;11.90;;;6.53;;
9080;SDS011;13509;50.760;6.080;2023-05-13T01:24:02;10.17;;;6.80;;
9080;SDS011;13509;50.760;6.080;2023-05-13T01:26:30;11.90;;;6.20;;
9080;SDS011;13509;50.760;6.080;2023-05-13T01:28:58;10.33;;;6.87;;
9080;SDS011;13509;50.760;6.080;2023-05-13T01:31:27;9.13;;;6.73;;
9080;SDS011;13509;50.760;6.080;2023-05-13T01:33:56;11.57;;;6.60;;
9080;SDS011;13509;50.760;6.080;2023-05-13T01:36:24;10.27;;;7.00;;
9080;SDS011;13509;50.760;6.080;2023-05-13T01:38:54;9.97;;;7.27;;
9080;SDS011;13509;50.760;6.080;2023-05-13T01:41:23;9.33;;;7.77;;
9080;SDS011;13509;50.760;6.080;2023-05-13T01:43:51;12.67;;;7.47;;
9080;SDS011;13509;50.760;6.080;2023-05-13T01:46:19;9.10;;;7.97;;
9080;SDS011;13509;50.760;6.080;2023-05-13T01:48:48;8.00;;;7.20;;
9080;SDS011;13509;50.760;6.080;2023-05-13T01:51:16;12.43;;;8.10;;
9080;SDS011;13509;50.760;6.080;2023-05-13T01:53:44;10.73;;;7.43;;
9080;SDS011;13509;50.760;6.080;2023-05-13T01:56:13;10.60;;;7.37;;
9080;SDS011;13509;50.760;6.080;2023-05-13T01:58:42;11.83;;;8.97;;
9080;SDS011;13509;50.760;6.080;2023-05-13T02:01:10;10.67;;;7.57;;
9080;SDS011;13509;50.760;6.080;2023-05-13T02:03:38;12.60;;;8.80;;
9080;SDS011;13509;50.760;6.080;2023-05-13T02:06:06;9.70;;;7.87;;
9080;SDS011;13509;50.760;6.080;2023-05-13T02:08:35;11.93;;;8.97;;
9080;SDS011;13509;50.760;6.080;2023-05-13T02:11:03;11.40;;;9.30;;
9080;SDS011;13509;50.760;6.080;2023-05-13T02:13:32;14.23;;;9.13;;
9080;SDS011;13509;50.760;6.080;2023-05-13T02:16:01;15.27;;;9.90;;
9080;SDS011;13509;50.760;6.080;2023-05-13T02:18:29;13.13;;;9.20;;
9080;SDS011;13509;50.760;6.080;2023-05-13T02:20:57;12.83;;;9.07;;
9080;SDS011;13509;50.760;6.080;2023-05-13T02:23:26;9.47;;;8.47;;
9080;SDS011;13509;50.760;6.080;2023-05-13T02:25:54;13.43;;;9.87;;
9080;SDS011;13509;50.760;6.080;2023-05-13T02:28:22;11.53;;;9.80;;
9080;SDS011;13509;50.760;6.080;2023-05-13T02:30:51;13.60;;;9.20;;
9080;SDS011;13509;50.760;6.080;2023-05-13T02:33:20;13.50;;;9.13;;
9080;SDS011;13509;50.760;6.080;2023-05-13T02:35:48;11.97;;;9.70;;
9080;SDS011;13509;50.760;6.080;2023-05-13T02:38:16;13.30;;;9.43;;
9080;SDS011;13509;50.760;6.080;2023-05-13T02:40:44;16.60;;;10.30;;
9080;SDS011;13509;50.760;6.080;2023-05-13T02:43:13;11.63;;;10.43;;
9080;SDS011;13509;50.760;6.080;2023-05-13T02:45:42;13.20;;;10.50;;
9080;SDS011;13509;50.760;6.080;2023-05-13T02:48:12;13.20;;;10.20;;
9080;SDS011;13509;50.760;6.080;2023-05-13T02:50:41;13.57;;;11.57;;
9080;SDS011;13509;50.760;6.080;2023-05-13T02:53:09;14.37;;;12.00;;
9080;SDS011;13509;50.760;6.080;2023-05-13T02:55:37;15.23;;;11.60;;
9080;SDS011;13509;50.760;6.080;2023-05-13T02:58:07;17.03;;;12.20;;
9080;SDS011;13509;50.760;6.080;2023-05-13T03:00:35;15.70;;;12.20;;
9080;SDS011;13509;50.760;6.080;2023-05-13T03:03:03;15.60;;;12.00;;
9080;SDS011;13509;50.760;6.080;2023-05-13T03:05:33;19.50;;;12.07;;
9080;SDS011;13509;50.760;6.080;2023-05-13T03:08:01;16.60;;;12.83;;
9080;SDS011;13509;50.760;6.080;2023-05-13T03:10:29;20.47;;;13.53;;
9080;SDS011;13509;50.760;6.080;2023-05-13T03:12:58;18.83;;;13.47;;
9080;SDS011;13509;50.760;6.080;2023-05-13T03:15:26;19.17;;;13.47;;
9080;SDS011;13509;50.760;6.080;2023-05-13T03:17:54;18.70;;;13.63;;
9080;SDS011;13509;50.760;6.080;2023-05-13T03:20:23;15.63;;;12.83;;
9080;SDS011;13509;50.760;6.080;2023-05-13T03:22:52;18.07;;;13.27;;
9080;SDS011;13509;50.760;6.080;2023-05-13T03:25:20;18.93;;;13.17;;
9080;SDS011;13509;50.760;6.080;2023-05-13T03:27:49;16.60;;;13.07;;
9080;SDS011;13509;50.760;6.080;2023-05-13T03:30:17;18.43;;;13.73;;
9080;SDS011;13509;50.760;6.080;2023-05-13T03:32:45;19.30;;;12.27;;
9080;SDS011;13509;50.760;6.080;2023-05-13T03:35:14;16.37;;;13.90;;
9080;SDS011;13509;50.760;6.080;2023-05-13T03:37:42;16.07;;;13.17;;
9080;SDS011;13509;50.760;6.080;2023-05-13T03:40:12;20.33;;;13.00;;
9080;SDS011;13509;50.760;6.080;2023-05-13T03:42:40;16.57;;;13.07;;
9080;SDS011;13509;50.760;6.080;2023-05-13T03:45:09;20.63;;;13.60;;
9080;SDS011;13509;50.760;6.080;2023-05-13T03:47:37;17.57;;;13.17;;
9080;SDS011;13509;50.760;6.080;2023-05-13T03:50:06;19.63;;;13.50;;
9080;SDS011;13509;50.760;6.080;2023-05-13T03:52:35;20.77;;;14.43;;
9080;SDS011;13509;50.760;6.080;2023-05-13T03:55:03;17.20;;;12.63;;
9080;SDS011;13509;50.760;6.080;2023-05-13T03:57:33;17.17;;;13.53;;
9080;SDS011;13509;50.760;6.080;2023-05-13T04:00:01;18.47;;;14.33;;
9080;SDS011;13509;50.760;6.080;2023-05-13T04:02:29;17.73;;;14.70;;
9080;SDS011;13509;50.760;6.080;2023-05-13T04:04:57;19.57;;;14.80;;
9080;SDS011;13509;50.760;6.080;2023-05-13T04:07:26;18.93;;;15.33;;
9080;SDS011;13509;50.760;6.080;2023-05-13T04:09:54;18.33;;;13.37;;
9080;SDS011;13509;50.760;6.080;2023-05-13T04:12:22;23.97;;;14.03;;
9080;SDS011;13509;50.760;6.080;2023-05-13T04:14:52;18.27;;;14.07;;
9080;SDS011;13509;50.760;6.080;2023-05-13T04:17:20;21.20;;;14.30;;
9080;SDS011;13509;50.760;6.080;2023-05-13T04:19:51;17.23;;;14.37;;
9080;SDS011;13509;50.760;6.080;2023-05-13T04:22:19;21.57;;;15.23;;
9080;SDS011;13509;50.760;6.080;2023-05-13T04:24:48;19.00;;;14.87;;
9080;SDS011;13509;50.760;6.080;2023-05-13T04:27:21;23.47;;;16.07;;
9080;SDS011;13509;50.760;6.080;2023-05-13T04:29:50;21.67;;;15.23;;
9080;SDS011;13509;50.760;6.080;2023-05-13T04:32:19;18.53;;;14.67;;
9080;SDS011;13509;50.760;6.080;2023-05-13T04:34:48;24.70;;;14.27;;
9080;SDS011;13509;50.760;6.080;2023-05-13T04:37:16;20.80;;;14.33;;
9080;SDS011;13509;50.760;6.080;2023-05-13T04:39:44;18.73;;;14.27;;
9080;SDS011;13509;50.760;6.080;2023-05-13T04:42:13;18.90;;;14.63;;
9080;SDS011;13509;50.760;6.080;2023-05-13T04:44:41;21.27;;;14.47;;
9080;SDS011;13509;50.760;6.080;2023-05-13T04:47:09;17.37;;;14.37;;
9080;SDS011;13509;50.760;6.080;2023-05-13T04:49:39;20.07;;;14.10;;
9080;SDS011;13509;50.760;6.080;2023-05-13T04:52:07;17.73;;;13.30;;
9080;SDS011;13509;50.760;6.080;2023-05-13T04:54:38;17.27;;;13.37;;
9080;SDS011;13509;50.760;6.080;2023-05-13T04:57:07;23.43;;;14.13;;
9080;SDS011;13509;50.760;6.080;2023-05-13T04:59:35;17.60;;;13.10;;
9080;SDS011;13509;50.760;6.080;2023-05-13T05:02:04;14.60;;;12.80;;
9080;SDS011;13509;50.760;6.080;2023-05-13T05:04:32;13.43;;;11.97;;
9080;SDS011;13509;50.760;6.080;2023-05-13T05:07:02;16.43;;;12.70;;
9080;SDS011;13509;50.760;6.080;2023-05-13T05:09:30;16.17;;;12.90;;
9080;SDS011;13509;50.760;6.080;2023-05-13T05:11:58;14.97;;;11.93;;
9080;SDS011;13509;50.760;6.080;2023-05-13T05:14:26;17.03;;;12.93;;
9080;SDS011;13509;50.760;6.080;2023-05-13T05:16:54;13.70;;;11.47;;
9080;SDS011;13509;50.760;6.080;2023-05-13T05:19:22;14.17;;;11.73;;
9080;SDS011;13509;50.760;6.080;2023-05-13T05:21:51;14.67;;;12.27;;
9080;SDS011;13509;50.760;6.080;2023-05-13T05:24:20;15.30;;;12.67;;
9080;SDS011;13509;50.760;6.080;2023-05-13T05:26:48;15.40;;;12.37;;
9080;SDS011;13509;50.760;6.080;2023-05-13T05:29:17;16.27;;;12.10;;
9080;SDS011;13509;50.760;6.080;2023-05-13T05:31:45;18.67;;;12.10;;
9080;SDS011;13509;50.760;6.080;2023-05-13T05:34:13;15.70;;;12.53;;
9080;SDS011;13509;50.760;6.080;2023-05-13T05:36:41;16.13;;;12.87;;
9080;SDS011;13509;50.760;6.080;2023-05-13T05:39:09;15.63;;;12.87;;
9080;SDS011;13509;50.760;6.080;2023-05-13T05:41:39;15.07;;;12.37;;
9080;SDS011;13509;50.760;6.080;2023-05-13T05:44:07;17.20;;;12.47;;
9080;SDS011;13509;50.760;6.080;2023-05-13T05:46:38;17.43;;;13.57;;
9080;SDS011;13509;50.760;6.080;2023-05-13T05:49:06;15.53;;;13.63;;
9080;SDS011;13509;50.760;6.080;2023-05-13T05:51:34;16.60;;;13.73;;
9080;SDS011;13509;50.760;6.080;2023-05-13T05:54:03;16.30;;;13.47;;
9080;SDS011;13509;50.760;6.080;2023-05-13T05:56:31;18.93;;;13.53;;
9080;SDS011;13509;50.760;6.080;2023-05-13T05:59:00;21.00;;;14.70;;
9080;SDS011;13509;50.760;6.080;2023-05-13T06:01:28;15.77;;;14.17;;
9080;SDS011;13509;50.760;6.080;2023-05-13T06:03:58;19.63;;;14.40;;
9080;SDS011;13509;50.760;6.080;2023-05-13T06:06:27;14.67;;;13.13;;
9080;SDS011;13509;50.760;6.080;2023-05-13T06:08:55;16.10;;;13.70;;
9080;SDS011;13509;50.760;6.080;2023-05-13T06:11:24;16.37;;;13.13;;
9080;SDS011;13509;50.760;6.080;2023-05-13T06:13:52;14.90;;;13.40;;
9080;SDS011;13509;50.760;6.080;2023-05-13T06:16:23;15.13;;;12.83;;
9080;SDS011;13509;50.760;6.080;2023-05-13T06:18:52;15.07;;;13.43;;
9080;SDS011;13509;50.760;6.080;2023-05-13T06:21:20;16.50;;;14.13;;
9080;SDS011;13509;50.760;6.080;2023-05-13T06:23:48;14.20;;;12.70;;
9080;SDS011;13509;50.760;6.080;2023-05-13T06:26:16;14.40;;;12.40;;
9080;SDS011;13509;50.760;6.080;2023-05-13T06:28:44;17.00;;;12.97;;
9080;SDS011;13509;50.760;6.080;2023-05-13T06:31:13;15.40;;;12.60;;
9080;SDS011;13509;50.760;6.080;2023-05-13T06:33:43;12.20;;;11.00;;
9080;SDS011;13509;50.760;6.080;2023-05-13T06:36:11;15.20;;;11.00;;
9080;SDS011;13509;50.760;6.080;2023-05-13T06:38:39;11.97;;;10.87;;
9080;SDS011;13509;50.760;6.080;2023-05-13T06:41:08;12.93;;;10.73;;
9080;SDS011;13509;50.760;6.080;2023-05-13T06:43:35;11.27;;;10.17;;
9080;SDS011;13509;50.760;6.080;2023-05-13T06:46:04;12.93;;;10.23;;
9080;SDS011;13509;50.760;6.080;2023-05-13T06:48:32;11.13;;;9.93;;
9080;SDS011;13509;50.760;6.080;2023-05-13T06:51:01;13.85;;;9.85;;
9080;SDS011;13509;50.760;6.080;2023-05-13T06:53:30;10.95;;;9.40;;
9080;SDS011;13509;50.760;6.080;2023-05-13T06:55:58;9.55;;;8.65;;
9080;SDS011;13509;50.760;6.080;2023-05-13T06:58:26;9.27;;;8.35;;
9080;SDS011;13509;50.760;6.080;2023-05-13T07:00:53;9.82;;;8.90;;
9080;SDS011;13509;50.760;6.080;2023-05-13T07:03:22;9.75;;;8.70;;
9080;SDS011;13509;50.760;6.080;2023-05-13T07:05:50;8.82;;;7.93;;
9080;SDS011;13509;50.760;6.080;2023-05-13T07:08:20;10.90;;;8.45;;
9080;SDS011;13509;50.760;6.080;2023-05-13T07:10:48;11.95;;;8.65;;
9080;SDS011;13509;50.760;6.080;2023-05-13T07:13:16;9.77;;;8.75;;
9080;SDS011;13509;50.760;6.080;2023-05-13T07:15:45;10.88;;;8.18;;
9080;SDS011;13509;50.760;6.080;2023-05-13T07:18:13;10.00;;;8.98;;
9080;SDS011;13509;50.760;6.080;2023-05-13T07:20:41;11.57;;;8.85;;
9080;SDS011;13509;50.760;6.080;2023-05-13T07:23:10;11.32;;;8.73;;
9080;SDS011;13509;50.760;6.080;2023-05-13T07:25:39;8.52;;;7.72;;
9080;SDS011;13509;50.760;6.080;2023-05-13T07:28:07;10.00;;;8.73;;
9080;SDS011;13509;50.760;6.080;2023-05-13T07:30:38;8.90;;;7.55;;
9080;SDS011;13509;50.760;6.080;2023-05-13T07:33:06;9.20;;;8.25;;
9080;SDS011;13509;50.760;6.080;2023-05-13T07:35:35;10.93;;;8.75;;
9080;SDS011;13509;50.760;6.080;2023-05-13T07:38:03;10.40;;;7.60;;
9080;SDS011;13509;50.760;6.080;2023-05-13T07:40:31;10.52;;;8.18;;
9080;SDS011;13509;50.760;6.080;2023-05-13T07:43:01;10.35;;;8.85;;
9080;SDS011;13509;50.760;6.080;2023-05-13T07:45:29;9.18;;;8.27;;
9080;SDS011;13509;50.760;6.080;2023-05-13T07:47:57;10.13;;;8.02;;
9080;SDS011;13509;50.760;6.080;2023-05-13T07:50:26;11.13;;;8.55;;
9080;SDS011;13509;50.760;6.080;2023-05-13T07:52:54;10.98;;;7.93;;
9080;SDS011;13509;50.760;6.080;2023-05-13T07:55:22;9.20;;;8.05;;
9080;SDS011;13509;50.760;6.080;2023-05-13T07:57:50;9.57;;;8.60;;
9080;SDS011;13509;50.760;6.080;2023-05-13T08:00:20;22.73;;;9.02;;
9080;SDS011;13509;50.760;6.080;2023-05-13T08:02:48;10.88;;;8.27;;
9080;SDS011;13509;50.760;6.080;2023-05-13T08:05:17;12.70;;;8.13;;
9080;SDS011;13509;50.760;6.080;2023-05-13T08:07:46;9.98;;;7.97;;
9080;SDS011;13509;50.760;6.080;2023-05-13T08:10:14;8.48;;;7.68;;
9080;SDS011;13509;50.760;6.080;2023-05-13T08:12:42;9.82;;;8.80;;
9080;SDS011;13509;50.760;6.080;2023-05-13T08:15:16;10.73;;;7.78;;
9080;SDS011;13509;50.760;6.080;2023-05-13T08:17:45;8.18;;;7.43;;
9080;SDS011;13509;50.760;6.080;2023-05-13T08:20:14;8.60;;;7.43;;
9080;SDS011;13509;50.760;6.080;2023-05-13T08:22:42;9.02;;;6.65;;
9080;SDS011;13509;50.760;6.080;2023-05-13T08:25:10;7.82;;;6.80;;
9080;SDS011;13509;50.760;6.080;2023-05-13T08:27:40;10.43;;;7.00;;
9080;SDS011;13509;50.760;6.080;2023-05-13T08:30:08;8.73;;;7.82;;
9080;SDS011;13509;50.760;6.080;2023-05-13T08:32:36;8.52;;;7.47;;
9080;SDS011;13509;50.760;6.080;2023-05-13T08:35:07;7.90;;;7.10;;
9080;SDS011;13509;50.760;6.080;2023-05-13T08:37:35;9.00;;;6.63;;
9080;SDS011;13509;50.760;6.080;2023-05-13T08:40:03;8.63;;;7.05;;
9080;SDS011;13509;50.760;6.080;2023-05-13T08:42:32;9.63;;;6.95;;
9080;SDS011;13509;50.760;6.080;2023-05-13T08:45:00;10.40;;;6.78;;
9080;SDS011;13509;50.760;6.080;2023-05-13T08:47:31;12.40;;;6.78;;
9080;SDS011;13509;50.760;6.080;2023-05-13T08:50:03;12.65;;;6.80;;
9080;SDS011;13509;50.760;6.080;2023-05-13T08:52:33;10.18;;;7.47;;
9080;SDS011;13509;50.760;6.080;2023-05-13T08:55:01;8.02;;;7.03;;
9080;SDS011;13509;50.760;6.080;2023-05-13T08:57:29;7.80;;;6.35;;
9080;SDS011;13509;50.760;6.080;2023-05-13T08:59:57;7.55;;;6.40;;
9080;SDS011;13509;50.760;6.080;2023-05-13T09:02:26;7.85;;;6.43;;
9080;SDS011;13509;50.760;6.080;2023-05-13T09:04:54;10.00;;;7.20;;
9080;SDS011;13509;50.760;6.080;2023-05-13T09:07:22;10.27;;;7.07;;
9080;SDS011;13509;50.760;6.080;2023-05-13T09:09:52;10.20;;;7.10;;
9080;SDS011;13509;50.760;6.080;2023-05-13T09:15:11;9.02;;;7.38;;
9080;SDS011;13509;50.760;6.080;2023-05-13T09:17:40;6.82;;;5.82;;
9080;SDS011;13509;50.760;6.080;2023-05-13T09:20:09;8.13;;;6.03;;
9080;SDS011;13509;50.760;6.080;2023-05-13T09:22:43;7.13;;;6.38;;
9080;SDS011;13509;50.760;6.080;2023-05-13T09:25:14;7.40;;;6.70;;
9080;SDS011;13509;50.760;6.080;2023-05-13T09:27:43;8.90;;;6.53;;
9080;SDS011;13509;50.760;6.080;2023-05-13T09:30:11;9.10;;;6.93;;
9080;SDS011;13509;50.760;6.080;2023-05-13T09:32:40;11.57;;;6.70;;
9080;SDS011;13509;50.760;6.080;2023-05-13T09:35:09;9.02;;;6.78;;
9080;SDS011;13509;50.760;6.080;2023-05-13T09:37:38;10.65;;;6.78;;
9080;SDS011;13509;50.760;6.080;2023-05-13T09:40:09;7.45;;;6.65;;
9080;SDS011;13509;50.760;6.080;2023-05-13T09:42:42;8.25;;;6.60;;
9080;SDS011;13509;50.760;6.080;2023-05-13T09:45:11;6.40;;;5.80;;
9080;SDS011;13509;50.760;6.080;2023-05-13T09:47:40;8.57;;;7.15;;
9080;SDS011;13509;50.760;6.080;2023-05-13T09:50:09;8.27;;;7.10;;
9080;SDS011;13509;50.760;6.080;2023-05-13T09:52:38;10.57;;;6.50;;
9080;SDS011;13509;50.760;6.080;2023-05-13T09:55:07;10.07;;;7.03;;
9080;SDS011;13509;50.760;6.080;2023-05-13T09:57:36;7.93;;;6.95;;
9080;SDS011;13509;50.760;6.080;2023-05-13T10:00:07;10.38;;;6.57;;
9080;SDS011;13509;50.760;6.080;2023-05-13T10:02:54;8.82;;;7.95;;
9080;SDS011;13509;50.760;6.080;2023-05-13T10:05:23;13.35;;;7.90;;
9080;SDS011;13509;50.760;6.080;2023-05-13T10:07:51;9.48;;;6.93;;
9080;SDS011;13509;50.760;6.080;2023-05-13T10:10:20;8.70;;;6.30;;
9080;SDS011;13509;50.760;6.080;2023-05-13T10:12:48;8.20;;;6.67;;
9080;SDS011;13509;50.760;6.080;2023-05-13T10:15:18;10.77;;;6.50;;
9080;SDS011;13509;50.760;6.080;2023-05-13T10:17:47;10.57;;;6.83;;
9080;SDS011;13509;50.760;6.080;2023-05-13T10:20:15;9.37;;;6.77;;
9080;SDS011;13509;50.760;6.080;2023-05-13T10:22:43;10.57;;;7.33;;
9080;SDS011;13509;50.760;6.080;2023-05-13T10:25:12;9.97;;;7.73;;
9080;SDS011;13509;50.760;6.080;2023-05-13T10:27:40;10.50;;;7.43;;
9080;SDS011;13509;50.760;6.080;2023-05-13T10:30:09;8.40;;;6.67;;
9080;SDS011;13509;50.760;6.080;2023-05-13T10:32:39;10.57;;;7.73;;
9080;SDS011;13509;50.760;6.080;2023-05-13T10:35:09;9.50;;;7.33;;
9080;SDS011;13509;50.760;6.080;2023-05-13T10:37:48;12.87;;;7.10;;
9080;SDS011;13509;50.760;6.080;2023-05-13T10:43:16;12.13;;;6.23;;
9080;SDS011;13509;50.760;6.080;2023-05-13T10:45:45;8.70;;;6.00;;
9080;SDS011;13509;50.760;6.080;2023-05-13T10:48:15;11.07;;;6.70;;
9080;SDS011;13509;50.760;6.080;2023-05-13T10:50:51;9.47;;;6.70;;
9080;SDS011;13509;50.760;6.080;2023-05-13T10:53:21;9.97;;;6.70;;
9080;SDS011;13509;50.760;6.080;2023-05-13T10:55:53;11.67;;;6.13;;
9080;SDS011;13509;50.760;6.080;2023-05-13T10:58:27;7.30;;;6.40;;
9080;SDS011;13509;50.760;6.080;2023-05-13T11:01:10;14.13;;;7.50;;
9080;SDS011;13509;50.760;6.080;2023-05-13T11:03:40;11.40;;;6.90;;
9080;SDS011;13509;50.760;6.080;2023-05-13T11:06:15;8.63;;;6.47;;
9080;SDS011;13509;50.760;6.080;2023-05-13T11:08:44;7.47;;;6.13;;
9080;SDS011;13509;50.760;6.080;2023-05-13T11:11:16;9.37;;;6.60;;
9080;SDS011;13509;50.760;6.080;2023-05-13T11:13:45;8.80;;;6.83;;
9080;SDS011;13509;50.760;6.080;2023-05-13T11:16:13;12.70;;;6.43;;
9080;SDS011;13509;50.760;6.080;2023-05-13T11:18:43;10.43;;;5.90;;
9080;SDS011;13509;50.760;6.080;2023-05-13T11:21:11;11.33;;;5.90;;
9080;SDS011;13509;50.760;6.080;2023-05-13T11:23:49;6.43;;;4.80;;
9080;SDS011;13509;50.760;6.080;2023-05-13T11:26:18;6.63;;;4.50;;
9080;SDS011;13509;50.760;6.080;2023-05-13T11:28:56;7.67;;;4.07;;
9080;SDS011;13509;50.760;6.080;2023-05-13T11:31:25;7.67;;;4.60;;
9080;SDS011;13509;50.760;6.080;2023-05-13T11:34:08;5.90;;;4.37;;
9080;SDS011;13509;50.760;6.080;2023-05-13T11:36:37;6.80;;;4.00;;
9080;SDS011;13509;50.760;6.080;2023-05-13T11:39:06;8.93;;;4.13;;
9080;SDS011;13509;50.760;6.080;2023-05-13T11:41:36;4.70;;;3.90;;
9080;SDS011;13509;50.760;6.080;2023-05-13T11:44:05;7.37;;;4.57;;
9080;SDS011;13509;50.760;6.080;2023-05-13T11:46:33;9.93;;;4.30;;
9080;SDS011;13509;50.760;6.080;2023-05-13T11:49:02;8.17;;;4.83;;
9080;SDS011;13509;50.760;6.080;2023-05-13T11:51:34;6.20;;;4.23;;
9080;SDS011;13509;50.760;6.080;2023-05-13T11:54:02;8.00;;;4.77;;
9080;SDS011;13509;50.760;6.080;2023-05-13T11:56:31;9.90;;;5.20;;
9080;SDS011;13509;50.760;6.080;2023-05-13T11:59:12;8.53;;;5.30;;
9080;SDS011;13509;50.760;6.080;2023-05-13T12:01:40;5.67;;;4.77;;
9080;SDS011;13509;50.760;6.080;2023-05-13T12:04:09;9.00;;;5.63;;
9080;SDS011;13509;50.760;6.080;2023-05-13T12:06:43;8.23;;;5.20;;
9080;SDS011;13509;50.760;6.080;2023-05-13T12:09:11;9.70;;;6.13;;
9080;SDS011;13509;50.760;6.080;2023-05-13T12:11:40;8.33;;;5.17;;
9080;SDS011;13509;50.760;6.080;2023-05-13T12:14:08;8.87;;;5.13;;
9080;SDS011;13509;50.760;6.080;2023-05-13T12:16:36;10.33;;;6.23;;
9080;SDS011;13509;50.760;6.080;2023-05-13T12:19:04;8.67;;;6.57;;
9080;SDS011;13509;50.760;6.080;2023-05-13T12:21:33;7.30;;;5.80;;
9080;SDS011;13509;50.760;6.080;2023-05-13T12:24:02;9.73;;;6.33;;
9080;SDS011;13509;50.760;6.080;2023-05-13T12:26:43;9.30;;;5.50;;
9080;SDS011;13509;50.760;6.080;2023-05-13T12:29:11;9.50;;;5.07;;
9080;SDS011;13509;50.760;6.080;2023-05-13T12:31:40;6.87;;;5.47;;
9080;SDS011;13509;50.760;6.080;2023-05-13T12:34:09;7.97;;;5.67;;
9080;SDS011;13509;50.760;6.080;2023-05-13T12:36:37;10.97;;;5.10;;
9080;SDS011;13509;50.760;6.080;2023-05-13T12:39:07;11.33;;;5.70;;
9080;SDS011;13509;50.760;6.080;2023-05-13T12:41:36;6.70;;;4.73;;
9080;SDS011;13509;50.760;6.080;2023-05-13T12:44:07;8.27;;;5.90;;
9080;SDS011;13509;50.760;6.080;2023-05-13T12:46:35;6.53;;;4.97;;
9080;SDS011;13509;50.760;6.080;2023-05-13T12:49:05;5.23;;;4.30;;
9080;SDS011;13509;50.760;6.080;2023-05-13T12:51:37;4.90;;;4.40;;
9080;SDS011;13509;50.760;6.080;2023-05-13T12:54:06;8.00;;;4.83;;
9080;SDS011;13509;50.760;6.080;2023-05-13T12:56:34;9.50;;;4.93;;
9080;SDS011;13509;50.760;6.080;2023-05-13T12:59:05;8.87;;;5.10;;
9080;SDS011;13509;50.760;6.080;2023-05-13T13:01:33;7.13;;;5.20;;
9080;SDS011;13509;50.760;6.080;2023-05-13T13:04:02;10.60;;;4.30;;
9080;SDS011;13509;50.760;6.080;2023-05-13T13:06:30;4.83;;;2.70;;
9080;SDS011;13509;50.760;6.080;2023-05-13T13:08:58;7.53;;;2.53;;
9080;SDS011;13509;50.760;6.080;2023-05-13T13:11:28;5.83;;;2.57;;
9080;SDS011;13509;50.760;6.080;2023-05-13T13:13:56;5.13;;;2.50;;
9080;SDS011;13509;50.760;6.080;2023-05-13T13:16:24;4.10;;;2.60;;
9080;SDS011;13509;50.760;6.080;2023-05-13T13:18:53;7.37;;;2.40;;
9080;SDS011;13509;50.760;6.080;2023-05-13T13:21:26;3.23;;;2.93;;
9080;SDS011;13509;50.760;6.080;2023-05-13T13:23:54;5.27;;;2.70;;
9080;SDS011;13509;50.760;6.080;2023-05-13T13:26:23;2.93;;;2.63;;
9080;SDS011;13509;50.760;6.080;2023-05-13T13:28:53;9.17;;;3.17;;
9080;SDS011;13509;50.760;6.080;2023-05-13T13:31:21;3.73;;;2.73;;
9080;SDS011;13509;50.760;6.080;2023-05-13T13:33:49;7.80;;;3.57;;
9080;SDS011;13509;50.760;6.080;2023-05-13T13:36:18;5.87;;;2.90;;
9080;SDS011;13509;50.760;6.080;2023-05-13T13:38:46;5.20;;;2.83;;
9080;SDS011;13509;50.760;6.080;2023-05-13T13:41:14;3.47;;;2.57;;
9080;SDS011;13509;50.760;6.080;2023-05-13T13:43:42;3.67;;;2.63;;
9080;SDS011;13509;50.760;6.080;2023-05-13T13:46:11;2.70;;;2.50;;
9080;SDS011;13509;50.760;6.080;2023-05-13T13:48:39;3.17;;;2.67;;
9080;SDS011;13509;50.760;6.080;2023-05-13T13:51:07;3.27;;;2.27;;
9080;SDS011;13509;50.760;6.080;2023-05-13T13:53:35;2.80;;;2.40;;
9080;SDS011;13509;50.760;6.080;2023-05-13T13:56:03;2.80;;;2.50;;
9080;SDS011;13509;50.760;6.080;2023-05-13T13:58:31;4.80;;;2.53;;
9080;SDS011;13509;50.760;6.080;2023-05-13T14:00:59;2.53;;;2.30;;
9080;SDS011;13509;50.760;6.080;2023-05-13T14:03:28;5.23;;;2.40;;
9080;SDS011;13509;50.760;6.080;2023-05-13T14:05:57;2.83;;;2.50;;
9080;SDS011;13509;50.760;6.080;2023-05-13T14:08:26;4.97;;;2.27;;
9080;SDS011;13509;50.760;6.080;2023-05-13T14:10:54;3.00;;;2.43;;
9080;SDS011;13509;50.760;6.080;2023-05-13T14:13:22;6.13;;;2.77;;
9080;SDS011;13509;50.760;6.080;2023-05-13T14:15:51;3.90;;;2.17;;
9080;SDS011;13509;50.760;6.080;2023-05-13T14:18:19;2.80;;;2.27;;
9080;SDS011;13509;50.760;6.080;2023-05-13T14:20:48;4.43;;;2.40;;
9080;SDS011;13509;50.760;6.080;2023-05-13T14:23:17;2.97;;;2.60;;
9080;SDS011;13509;50.760;6.080;2023-05-13T14:25:45;3.23;;;2.47;;
9080;SDS011;13509;50.760;6.080;2023-05-13T14:28:13;3.97;;;2.60;;
9080;SDS011;13509;50.760;6.080;2023-05-13T14:30:42;4.13;;;2.43;;
9080;SDS011;13509;50.760;6.080;2023-05-13T14:33:10;2.73;;;2.53;;
9080;SDS011;13509;50.760;6.080;2023-05-13T14:35:39;4.17;;;2.87;;
9080;SDS011;13509;50.760;6.080;2023-05-13T14:38:08;7.93;;;5.30;;
9080;SDS011;13509;50.760;6.080;2023-05-13T14:40:37;3.63;;;3.27;;
9080;SDS011;13509;50.760;6.080;2023-05-13T14:43:05;4.30;;;3.00;;
9080;SDS011;13509;50.760;6.080;2023-05-13T14:45:34;2.87;;;2.63;;
9080;SDS011;13509;50.760;6.080;2023-05-13T14:48:02;3.43;;;2.57;;
9080;SDS011;13509;50.760;6.080;2023-05-13T14:50:30;3.20;;;2.77;;
9080;SDS011;13509;50.760;6.080;2023-05-13T14:52:58;4.63;;;2.10;;
9080;SDS011;13509;50.760;6.080;2023-05-13T14:55:28;4.77;;;2.33;;
9080;SDS011;13509;50.760;6.080;2023-05-13T14:57:56;5.80;;;2.53;;
9080;SDS011;13509;50.760;6.080;2023-05-13T15:00:24;3.50;;;2.67;;
9080;SDS011;13509;50.760;6.080;2023-05-13T15:02:53;3.27;;;2.67;;
9080;SDS011;13509;50.760;6.080;2023-05-13T15:05:21;3.77;;;2.30;;
9080;SDS011;13509;50.760;6.080;2023-05-13T15:07:51;3.93;;;2.80;;